This is the latest recevied weather packets stored in our database for station/object DB0BGL. If no packets are shown the sender has not sent any weather packets the latest 10 day(s).
| Time | Temp. | Humidity | Pressure | Rain* | Wind** | Luminosity | Snow |
|---|---|---|---|---|---|---|---|
| 1778230415 | 11.11° C | 72% | 0 hPa | 0 mm | - | - | - |
| 1778229814 | 11.11° C | 69% | 0 hPa | 0 mm | - | - | - |
| 1778229214 | 12.22° C | 67% | 0 hPa | 0 mm | - | - | - |
| 1778228654 | 13.33° C | 65% | 0 hPa | 0 mm | - | - | - |
| 1778228613 | 13.33° C | 65% | 0 hPa | 0 mm | - | - | - |
| 1778228013 | 12.78° C | 67% | 0 hPa | 0 mm | - | - | - |
| 1778227412 | 13.89° C | 61% | 0 hPa | 0 mm | - | - | - |
| 1778226812 | 13.33° C | 62% | 0 hPa | 0 mm | - | - | - |
| 1778226211 | 14.44° C | 59% | 0 hPa | 0 mm | - | - | - |
| 1778225650 | 14.44° C | 61% | 0 hPa | 0 mm | - | - | - |
| 1778225610 | 14.44° C | 61% | 0 hPa | 0 mm | - | - | - |
| 1778225010 | 14.44° C | 58% | 0 hPa | 0 mm | - | - | - |
| 1778224409 | 15° C | 55% | 0 hPa | 0 mm | - | - | - |
| 1778223809 | 15° C | 57% | 0 hPa | 0 mm | - | - | - |
| 1778141449 | 1.67° C | 100% | 0 hPa | 0 mm | - | - | - |
| 1778104227 | 23.89° C | 100% | 0 hPa | 0 mm | - | - | - |
| 1778103506 | 23.89° C | 100% | 0 hPa | 0 mm | - | - | - |
| 1778102785 | 23.89° C | 100% | 0 hPa | 0 mm | - | - | - |
| 1778102065 | 23.89° C | 100% | 0 hPa | 0 mm | - | - | - |
| 1778101344 | 23.89° C | 100% | 0 hPa | 0 mm | - | - | - |
| 1778100369 | 23.89° C | 100% | 0 hPa | 0 mm | - | - | - |
| 1778099648 | 23.89° C | 100% | 0 hPa | 0 mm | - | - | - |
| 1778073201 | 20.56° C | 33% | 0 hPa | 0 mm | - | - | - |
| 1778072601 | 19.44° C | 36% | 0 hPa | 0 mm | - | - | - |
| 1778072550 | -17.78° C | 100% | 0 hPa | 0 mm | - | - | - |
* Rain latest hour (hover to see other rain measurements)
** Current wind speed in m/s (hover to see current wind gust speed)